createdAt,value
2023-04-15T07:13:58.837Z,1010.59
2023-04-15T07:14:13.794Z,1010.60
2023-04-15T07:15:14.700Z,1010.56
2023-04-15T07:16:13.825Z,1010.55
2023-04-15T07:17:13.924Z,1010.55
2023-04-15T07:18:13.218Z,1010.57
2023-04-15T07:19:13.374Z,1010.59
2023-04-15T07:20:13.410Z,1010.60
2023-04-15T07:21:13.269Z,1010.58
2023-04-15T07:22:13.183Z,1010.58
2023-04-15T07:23:13.089Z,1010.61
2023-04-15T07:24:13.379Z,1010.60
2023-04-15T07:25:13.433Z,1010.61
2023-04-15T07:26:13.475Z,1010.63
2023-04-15T07:27:13.547Z,1010.65
2023-04-15T07:28:13.618Z,1010.62
2023-04-15T07:29:13.619Z,1010.64
2023-04-15T07:30:13.541Z,1010.62
2023-04-15T07:31:13.457Z,1010.60
2023-04-15T07:32:13.532Z,1010.58
2023-04-15T07:33:13.496Z,1010.63
2023-04-15T07:34:13.390Z,1010.65
2023-04-15T07:35:13.569Z,1010.64
2023-04-15T07:36:13.501Z,1010.64
2023-04-15T07:37:13.617Z,1010.64
2023-04-15T07:38:13.858Z,1010.64
2023-04-15T07:39:14.116Z,1010.65
2023-04-15T07:40:12.952Z,1010.65
2023-04-15T07:41:12.959Z,1010.66
2023-04-15T07:42:13.127Z,1010.68
2023-04-15T07:43:13.206Z,1010.67
2023-04-15T07:44:13.176Z,1010.70
2023-04-15T07:45:13.383Z,1010.67
2023-04-15T07:46:13.461Z,1010.70
2023-04-15T07:47:13.688Z,1010.70
2023-04-15T07:48:13.759Z,1010.71
2023-04-15T07:49:13.827Z,1010.74
2023-04-15T07:50:13.769Z,1010.73
2023-04-15T07:51:13.635Z,1010.74
2023-04-15T07:52:13.524Z,1010.74
2023-04-15T07:53:13.516Z,1010.73
2023-04-15T07:54:13.550Z,1010.74
2023-04-15T07:55:13.662Z,1010.73
2023-04-15T07:56:13.719Z,1010.74
2023-04-15T07:57:13.705Z,1010.75
2023-04-15T07:58:14.223Z,1010.79
2023-04-15T07:59:13.083Z,1010.74
2023-04-15T08:00:13.008Z,1010.75
2023-04-15T08:01:12.912Z,1010.74
2023-04-15T08:02:13.191Z,1010.79
2023-04-15T08:03:13.748Z,1010.82
2023-04-15T08:04:12.856Z,1010.79
2023-04-15T08:05:14.308Z,1010.77
2023-04-15T08:06:13.558Z,1010.80
2023-04-15T08:07:13.970Z,1010.78
2023-04-15T08:08:12.889Z,1010.76
2023-04-15T08:09:12.990Z,1010.83
2023-04-15T08:10:12.781Z,1010.79
2023-04-15T08:11:14.001Z,1010.76
2023-04-15T08:12:13.084Z,1010.74
2023-04-15T08:13:13.129Z,1010.82
2023-04-15T08:14:13.005Z,1010.82
2023-04-15T08:15:13.203Z,1010.80
2023-04-15T08:16:13.071Z,1010.76
2023-04-15T08:17:12.979Z,1010.75
2023-04-15T08:18:12.924Z,1010.82
2023-04-15T08:19:12.847Z,1010.81
2023-04-15T08:20:13.895Z,1010.77
2023-04-15T08:21:13.193Z,1010.79
2023-04-15T08:22:18.517Z,1010.80
2023-04-15T08:23:13.671Z,1010.79
2023-04-15T08:24:13.676Z,1010.84
2023-04-15T08:25:13.536Z,1010.77
2023-04-15T08:26:13.487Z,1010.78
2023-04-15T08:27:13.383Z,1010.75
2023-04-15T08:28:13.341Z,1010.78
2023-04-15T08:29:13.602Z,1010.83
2023-04-15T08:30:13.809Z,1010.86
2023-04-15T08:31:13.925Z,1010.82
2023-04-15T08:32:13.090Z,1010.83
2023-04-15T08:33:13.311Z,1010.80
2023-04-15T08:34:13.560Z,1010.84
2023-04-15T08:35:13.950Z,1010.84
2023-04-15T08:36:12.820Z,1010.88
2023-04-15T08:37:13.781Z,1010.85
2023-04-15T08:38:13.758Z,1010.84
2023-04-15T08:39:13.721Z,1010.89
2023-04-15T08:40:13.746Z,1010.82
2023-04-15T08:41:13.791Z,1010.90
2023-04-15T08:42:13.714Z,1010.88
2023-04-15T08:43:13.617Z,1010.95
2023-04-15T08:44:13.564Z,1010.94
2023-04-15T08:45:13.616Z,1010.98
2023-04-15T08:46:13.606Z,1011.00
2023-04-15T08:47:13.545Z,1010.99
2023-04-15T08:48:13.843Z,1010.98
2023-04-15T08:49:13.737Z,1010.91
2023-04-15T08:50:13.637Z,1010.98
2023-04-15T08:51:13.504Z,1010.96
2023-04-15T08:52:13.648Z,1010.99
2023-04-15T08:53:13.990Z,1011.03
2023-04-15T08:54:12.937Z,1010.98
2023-04-15T08:55:12.928Z,1010.96
2023-04-15T08:56:12.852Z,1011.00
2023-04-15T08:57:13.841Z,1011.03
2023-04-15T08:58:13.845Z,1010.97
2023-04-15T08:59:13.824Z,1011.03
2023-04-15T09:00:13.722Z,1011.06
2023-04-15T09:01:13.696Z,1011.07
2023-04-15T09:02:13.842Z,1011.07
2023-04-15T09:03:14.499Z,1011.08
2023-04-15T09:04:14.554Z,1011.08
2023-04-15T09:05:13.497Z,1011.07
2023-04-15T09:06:13.712Z,1011.14
2023-04-15T09:07:13.772Z,1011.17
2023-04-15T09:08:13.852Z,1011.14
2023-04-15T09:09:12.870Z,1011.13
2023-04-15T09:10:13.869Z,1011.19
2023-04-15T09:11:13.866Z,1011.17
2023-04-15T09:12:13.727Z,1011.18
2023-04-15T09:13:13.663Z,1011.17
2023-04-15T09:14:13.574Z,1011.25
2023-04-15T09:15:13.583Z,1011.27
2023-04-15T09:16:13.789Z,1011.23
2023-04-15T09:17:13.697Z,1011.22
2023-04-15T09:18:14.159Z,1011.24
2023-04-15T09:19:13.412Z,1011.26
2023-04-15T09:20:13.482Z,1011.29
2023-04-15T09:21:13.422Z,1011.27
2023-04-15T09:22:13.679Z,1011.35
2023-04-15T09:23:13.637Z,1011.40
2023-04-15T09:24:13.832Z,1011.39
2023-04-15T09:25:14.027Z,1011.39
2023-04-15T09:26:12.834Z,1011.41
2023-04-15T09:27:13.872Z,1011.42
2023-04-15T09:28:13.858Z,1011.41
2023-04-15T09:29:13.930Z,1011.40
2023-04-15T09:30:12.873Z,1011.39
2023-04-15T09:31:14.210Z,1011.51
2023-04-15T09:32:13.262Z,1011.45
2023-04-15T09:33:13.756Z,1011.40
2023-04-15T09:34:14.036Z,1011.49
2023-04-15T09:35:13.024Z,1011.50
2023-04-15T09:36:12.916Z,1011.47
2023-04-15T09:37:15.096Z,1011.54
2023-04-15T09:38:13.430Z,1011.54
2023-04-15T09:39:13.490Z,1011.56
2023-04-15T09:40:13.801Z,1011.50
2023-04-15T09:41:13.792Z,1011.55
2023-04-15T09:42:14.297Z,1011.55
2023-04-15T09:43:13.255Z,1011.51
2023-04-15T09:44:13.490Z,1011.55
2023-04-15T09:45:13.548Z,1011.52
2023-04-15T09:46:13.793Z,1011.49
2023-04-15T09:47:13.786Z,1011.52
2023-04-15T09:48:13.838Z,1011.52
2023-04-15T09:49:14.008Z,1011.55
2023-04-15T09:50:13.065Z,1011.55
2023-04-15T09:51:13.154Z,1011.60
2023-04-15T09:52:13.018Z,1011.60
2023-04-15T09:53:13.203Z,1011.58
2023-04-15T09:54:13.136Z,1011.61
2023-04-15T09:55:13.404Z,1011.58
2023-04-15T09:56:13.272Z,1011.65
2023-04-15T09:57:13.328Z,1011.68
2023-04-15T09:58:13.179Z,1011.59
2023-04-15T09:59:13.345Z,1011.65
2023-04-15T10:00:13.277Z,1011.60
2023-04-15T10:01:13.601Z,1011.63
2023-04-15T10:02:13.714Z,1011.65
2023-04-15T10:03:13.908Z,1011.64
2023-04-15T10:04:12.944Z,1011.69
2023-04-15T10:05:13.175Z,1011.66
2023-04-15T10:06:12.995Z,1011.71
2023-04-15T10:07:13.147Z,1011.72
2023-04-15T10:08:13.057Z,1011.75
2023-04-15T10:09:13.405Z,1011.72
2023-04-15T10:10:13.386Z,1011.70
2023-04-15T10:11:14.026Z,1011.76
2023-04-15T10:12:13.265Z,1011.77
2023-04-15T10:13:13.567Z,1011.78
2023-04-15T10:14:13.437Z,1011.77
2023-04-15T10:15:13.471Z,1011.81
2023-04-15T10:16:13.526Z,1011.83
2023-04-15T10:17:13.511Z,1011.82
2023-04-15T10:18:13.363Z,1011.79
2023-04-15T10:19:13.433Z,1011.80
2023-04-15T10:20:13.331Z,1011.85
2023-04-15T10:21:13.319Z,1011.82
2023-04-15T10:22:13.257Z,1011.85
2023-04-15T10:23:13.517Z,1011.88
2023-04-15T10:24:13.427Z,1011.87
2023-04-15T10:25:13.555Z,1011.82
2023-04-15T10:26:13.564Z,1011.91
2023-04-15T10:27:13.453Z,1011.89
2023-04-15T10:28:13.381Z,1011.90
2023-04-15T10:29:13.418Z,1011.88
2023-04-15T10:30:13.228Z,1011.94
2023-04-15T10:31:13.610Z,1011.93
2023-04-15T10:32:13.765Z,1011.89
2023-04-15T10:33:14.215Z,1011.94
2023-04-15T10:34:13.081Z,1011.99
2023-04-15T10:35:13.017Z,1011.98
2023-04-15T10:36:12.969Z,1011.94
2023-04-15T10:37:12.841Z,1011.92
2023-04-15T10:38:13.755Z,1011.95
2023-04-15T10:39:13.809Z,1011.94
2023-04-15T10:40:13.935Z,1011.97
2023-04-15T10:41:12.832Z,1011.98
2023-04-15T10:42:13.878Z,1012.00
2023-04-15T10:43:13.143Z,1012.02
2023-04-15T10:44:13.068Z,1012.00
2023-04-15T10:45:12.941Z,1012.00
2023-04-15T10:46:13.667Z,1012.02
2023-04-15T10:47:13.762Z,1012.02
2023-04-15T10:48:14.170Z,1011.96
2023-04-15T10:49:13.032Z,1012.01
2023-04-15T10:50:13.145Z,1012.00
2023-04-15T10:51:13.118Z,1012.02
2023-04-15T10:52:13.130Z,1012.09
2023-04-15T10:53:13.125Z,1012.09
2023-04-15T10:54:13.428Z,1012.05
2023-04-15T10:55:13.761Z,1012.07
2023-04-15T10:56:13.655Z,1012.11
2023-04-15T10:57:13.750Z,1012.10
2023-04-15T10:58:15.439Z,1012.13
2023-04-15T10:59:13.744Z,1012.11
2023-04-15T11:00:13.984Z,1012.10
2023-04-15T11:01:13.534Z,1012.18
2023-04-15T11:02:13.598Z,1012.19
2023-04-15T11:03:14.090Z,1012.15
2023-04-15T11:04:14.821Z,1012.11
2023-04-15T11:05:13.778Z,1012.22
2023-04-15T11:06:13.797Z,1012.19
2023-04-15T11:07:14.079Z,1012.22
2023-04-15T11:08:13.218Z,1012.17
2023-04-15T11:09:13.177Z,1012.16
2023-04-15T11:10:13.158Z,1012.20
2023-04-15T11:11:13.325Z,1012.19
2023-04-15T11:12:13.461Z,1012.18
2023-04-15T11:13:13.415Z,1012.15
2023-04-15T11:14:13.289Z,1012.25
2023-04-15T11:15:13.363Z,1012.21
2023-04-15T11:16:13.450Z,1012.17
2023-04-15T11:17:13.497Z,1012.23
2023-04-15T11:18:13.308Z,1012.23
2023-04-15T11:19:13.174Z,1012.18
2023-04-15T11:20:13.017Z,1012.24
2023-04-15T11:21:12.882Z,1012.21
2023-04-15T11:22:13.746Z,1012.23
2023-04-15T11:23:15.123Z,1012.28
2023-04-15T11:24:14.210Z,1012.31
2023-04-15T11:25:13.156Z,1012.31
2023-04-15T11:26:13.097Z,1012.31
2023-04-15T11:27:13.303Z,1012.27
2023-04-15T11:28:13.246Z,1012.35
2023-04-15T11:29:13.501Z,1012.40
2023-04-15T11:30:13.701Z,1012.35
2023-04-15T11:31:18.966Z,1012.31
2023-04-15T11:32:13.159Z,1012.37
2023-04-15T11:33:13.267Z,1012.37
2023-04-15T11:34:13.152Z,1012.46
2023-04-15T11:35:13.242Z,1012.48
2023-04-15T11:36:13.288Z,1012.42
2023-04-15T11:37:13.300Z,1012.44
2023-04-15T11:38:13.301Z,1012.44
2023-04-15T11:39:13.266Z,1012.47
2023-04-15T11:40:13.233Z,1012.46
2023-04-15T11:41:13.401Z,1012.45
2023-04-15T11:42:13.688Z,1012.49
2023-04-15T11:43:13.595Z,1012.48
2023-04-15T11:45:10.388Z,1012.53
2023-04-15T11:45:15.159Z,1012.55
2023-04-15T11:46:13.044Z,1012.52
2023-04-15T11:47:13.254Z,1012.47
2023-04-15T11:48:13.528Z,1012.56
2023-04-15T11:49:14.669Z,1012.58
2023-04-15T11:50:13.774Z,1012.59
2023-04-15T11:51:13.887Z,1012.58
2023-04-15T11:52:12.845Z,1012.57
2023-04-15T11:53:13.958Z,1012.59
2023-04-15T11:54:13.155Z,1012.64
2023-04-15T11:55:13.232Z,1012.62
2023-04-15T11:56:13.388Z,1012.55
2023-04-15T11:57:13.416Z,1012.61
2023-04-15T11:58:15.643Z,1012.57
2023-04-15T11:59:13.401Z,1012.61
2023-04-15T12:00:13.373Z,1012.58
2023-04-15T12:01:13.670Z,1012.63
2023-04-15T12:02:13.807Z,1012.68
2023-04-15T12:03:13.984Z,1012.64
2023-04-15T12:04:13.329Z,1012.64
2023-04-15T12:05:13.493Z,1012.63
2023-04-15T12:06:39.534Z,1012.68
2023-04-15T12:07:13.520Z,1012.69
2023-04-15T12:08:18.648Z,1012.69
2023-04-15T12:09:14.029Z,1012.72
2023-04-15T12:10:38.224Z,1012.73
2023-04-15T12:11:20.835Z,1012.71
2023-04-15T12:12:14.289Z,1012.74
2023-04-15T12:13:13.612Z,1012.78
2023-04-15T12:14:13.443Z,1012.76
2023-04-15T12:15:23.661Z,1012.71
2023-04-15T12:16:13.899Z,1012.73
2023-04-15T12:17:12.945Z,1012.75
2023-04-15T12:18:13.156Z,1012.77
2023-04-15T12:19:13.156Z,1012.84
2023-04-15T12:20:13.171Z,1012.85
2023-04-15T12:21:56.173Z,1012.84
2023-04-15T12:22:22.049Z,1012.88
2023-04-15T12:23:13.340Z,1012.93
2023-04-15T12:24:13.539Z,1012.91
2023-04-15T12:25:13.684Z,1012.95
2023-04-15T12:26:23.429Z,1012.89
2023-04-15T12:27:13.624Z,1012.95
2023-04-15T12:28:23.853Z,1012.84
2023-04-15T12:29:39.201Z,1012.91
2023-04-15T12:30:13.160Z,1013.00
2023-04-15T12:31:13.190Z,1012.99
2023-04-15T12:33:28.034Z,1012.99
2023-04-15T12:34:12.941Z,1013.04
2023-04-15T12:35:12.825Z,1013.05
2023-04-15T12:36:13.755Z,1013.05
2023-04-15T12:37:13.952Z,1013.10
2023-04-15T12:38:12.995Z,1013.11
2023-04-15T12:39:13.218Z,1013.13
2023-04-15T12:40:13.322Z,1013.15
2023-04-15T12:41:13.259Z,1013.13
2023-04-15T12:42:13.220Z,1013.17
2023-04-15T12:43:13.136Z,1013.11
2023-04-15T12:44:13.095Z,1013.19
2023-04-15T12:45:13.042Z,1013.18
2023-04-15T12:46:13.069Z,1013.21
2023-04-15T12:47:12.968Z,1013.18
2023-04-15T12:48:13.143Z,1013.28
2023-04-15T12:49:13.207Z,1013.19
2023-04-15T12:50:13.207Z,1013.24
2023-04-15T12:51:13.136Z,1013.24
2023-04-15T12:52:12.992Z,1013.23
2023-04-15T12:53:13.165Z,1013.24
2023-04-15T12:54:13.241Z,1013.25
2023-04-15T12:55:13.126Z,1013.29
2023-04-15T12:56:12.971Z,1013.31
2023-04-15T12:57:13.444Z,1013.36
2023-04-15T12:58:13.641Z,1013.30
2023-04-15T12:59:13.665Z,1013.33
2023-04-15T13:00:13.692Z,1013.33
2023-04-15T13:01:13.588Z,1013.33
2023-04-15T13:02:13.630Z,1013.33
2023-04-15T13:03:13.809Z,1013.41
2023-04-15T13:04:13.196Z,1013.33
2023-04-15T13:05:13.600Z,1013.35
2023-04-15T13:06:13.920Z,1013.37
2023-04-15T13:07:13.393Z,1013.38
2023-04-15T13:08:13.999Z,1013.40
2023-04-15T13:09:12.915Z,1013.38
2023-04-15T13:10:12.910Z,1013.39
2023-04-15T13:11:12.792Z,1013.47
2023-04-15T13:12:13.734Z,1013.38
2023-04-15T13:13:13.782Z,1013.43
2023-04-15T13:14:13.884Z,1013.41
2023-04-15T13:15:12.921Z,1013.46
2023-04-15T13:16:13.148Z,1013.45
2023-04-15T13:17:13.051Z,1013.47
2023-04-15T13:18:12.886Z,1013.48
2023-04-15T13:19:12.737Z,1013.48
2023-04-15T13:20:13.696Z,1013.50
2023-04-15T13:21:13.838Z,1013.50
2023-04-15T13:22:13.635Z,1013.49
2023-04-15T13:23:13.707Z,1013.49
2023-04-15T13:24:13.602Z,1013.52
2023-04-15T13:25:13.658Z,1013.50
2023-04-15T13:26:13.703Z,1013.58
2023-04-15T13:27:13.641Z,1013.49
2023-04-15T13:28:13.724Z,1013.57
2023-04-15T13:29:13.752Z,1013.58
2023-04-15T13:30:13.576Z,1013.56
2023-04-15T13:31:13.501Z,1013.58
2023-04-15T13:32:13.524Z,1013.63
2023-04-15T13:33:13.561Z,1013.61
2023-04-15T13:34:13.448Z,1013.55
2023-04-15T13:35:13.416Z,1013.58
2023-04-15T13:36:13.302Z,1013.61
2023-04-15T13:37:13.550Z,1013.61
2023-04-15T13:38:13.448Z,1013.60
2023-04-15T13:39:13.412Z,1013.62
2023-04-15T13:40:13.687Z,1013.61
2023-04-15T13:41:45.888Z,1013.60
2023-04-15T13:42:12.877Z,1013.67
2023-04-15T13:43:13.771Z,1013.66
2023-04-15T13:44:13.642Z,1013.66
2023-04-15T13:45:13.556Z,1013.64
2023-04-15T13:46:41.461Z,1013.63
2023-04-15T13:47:12.936Z,1013.66
2023-04-15T13:48:13.246Z,1013.70
2023-04-15T13:49:13.408Z,1013.65
2023-04-15T13:50:13.493Z,1013.77
2023-04-15T13:51:34.164Z,1013.65
2023-04-15T13:52:13.078Z,1013.75
2023-04-15T13:53:13.001Z,1013.72
2023-04-15T13:54:13.244Z,1013.76
2023-04-15T13:55:21.154Z,1013.76
2023-04-15T13:56:13.291Z,1013.76
2023-04-15T13:57:13.108Z,1013.80
2023-04-15T13:58:13.128Z,1013.84
2023-04-15T13:59:13.047Z,1013.80
2023-04-15T14:00:12.857Z,1013.85
2023-04-15T14:01:14.021Z,1013.92
2023-04-15T14:02:13.405Z,1013.92
2023-04-15T14:03:13.620Z,1013.88
2023-04-15T14:04:13.834Z,1013.92
2023-04-15T14:05:12.976Z,1013.93
2023-04-15T14:06:13.525Z,1013.91
2023-04-15T14:07:13.795Z,1013.91
2023-04-15T14:08:14.088Z,1013.94
2023-04-15T14:09:12.941Z,1013.95
2023-04-15T14:10:12.820Z,1013.97
2023-04-15T14:11:13.597Z,1013.93
2023-04-15T14:12:18.688Z,1014.00
2023-04-15T14:13:13.536Z,1013.99
2023-04-15T14:14:15.262Z,1013.96
2023-04-15T14:15:13.177Z,1014.00
2023-04-15T14:16:13.219Z,1014.00
2023-04-15T14:17:13.264Z,1014.06
2023-04-15T14:18:13.480Z,1014.06
2023-04-15T14:19:13.558Z,1014.09
2023-04-15T14:20:16.777Z,1014.10
2023-04-15T14:21:13.272Z,1014.12
2023-04-15T14:22:13.352Z,1014.14
2023-04-15T14:23:13.262Z,1014.12
2023-04-15T14:24:13.223Z,1014.16
2023-04-15T14:25:20.147Z,1014.14
2023-04-15T14:26:13.889Z,1014.18
2023-04-15T14:27:13.005Z,1014.22
2023-04-15T14:28:13.079Z,1014.20
2023-04-15T14:29:12.990Z,1014.17
2023-04-15T14:30:12.958Z,1014.19
2023-04-15T14:31:13.107Z,1014.18
2023-04-15T14:32:13.268Z,1014.19
2023-04-15T14:33:13.698Z,1014.20
2023-04-15T14:34:13.692Z,1014.21
2023-04-15T14:35:13.890Z,1014.23
2023-04-15T14:36:13.982Z,1014.25
2023-04-15T14:37:13.177Z,1014.29
2023-04-15T14:38:13.072Z,1014.26
2023-04-15T14:39:13.003Z,1014.29
2023-04-15T14:40:12.877Z,1014.30
2023-04-15T14:41:13.898Z,1014.29
2023-04-15T14:42:12.911Z,1014.31
2023-04-15T14:43:13.051Z,1014.33
2023-04-15T14:44:13.129Z,1014.36
2023-04-15T14:45:13.242Z,1014.38
2023-04-15T14:46:13.389Z,1014.37
2023-04-15T14:47:13.616Z,1014.41
2023-04-15T14:48:13.484Z,1014.39
2023-04-15T14:49:13.806Z,1014.45
2023-04-15T14:50:13.692Z,1014.44
2023-04-15T14:51:13.913Z,1014.45
2023-04-15T14:52:12.847Z,1014.47
2023-04-15T14:53:13.751Z,1014.48
2023-04-15T14:54:14.120Z,1014.50
2023-04-15T14:55:13.043Z,1014.52
2023-04-15T14:56:13.103Z,1014.54
2023-04-15T14:57:12.993Z,1014.50
2023-04-15T14:58:12.859Z,1014.54
2023-04-15T14:59:13.783Z,1014.53
2023-04-15T15:00:15.949Z,1014.52
2023-04-15T15:01:13.471Z,1014.51
2023-04-15T15:03:13.727Z,1014.55
2023-04-15T15:04:14.104Z,1014.54
2023-04-15T15:05:13.392Z,1014.55
2023-04-15T15:06:13.349Z,1014.58
2023-04-15T15:07:13.801Z,1014.57
2023-04-15T15:08:13.725Z,1014.60
2023-04-15T15:09:13.658Z,1014.58
2023-04-15T15:10:49.478Z,1014.62
2023-04-15T15:11:12.901Z,1014.59
2023-04-15T15:12:12.849Z,1014.68
2023-04-15T15:13:13.885Z,1014.66
2023-04-15T15:14:13.081Z,1014.61
2023-04-15T15:15:28.043Z,1014.66
2023-04-15T15:16:14.746Z,1014.58
2023-04-15T15:17:12.994Z,1014.62
2023-04-15T15:18:12.981Z,1014.62
2023-04-15T15:19:13.291Z,1014.69
2023-04-15T15:20:13.505Z,1014.72
2023-04-15T15:21:13.588Z,1014.70
2023-04-15T15:22:13.514Z,1014.66
2023-04-15T15:23:13.431Z,1014.72
2023-04-15T15:24:13.212Z,1014.75
2023-04-15T15:25:13.130Z,1014.74
2023-04-15T15:26:13.028Z,1014.73
2023-04-15T15:27:12.980Z,1014.82
2023-04-15T15:28:12.961Z,1014.76
2023-04-15T15:29:12.927Z,1014.77
2023-04-15T15:30:12.892Z,1014.82
2023-04-15T15:31:13.857Z,1014.82
2023-04-15T15:32:13.790Z,1014.81
2023-04-15T15:33:13.994Z,1014.81
2023-04-15T15:34:12.858Z,1014.83
2023-04-15T15:35:13.792Z,1014.86
2023-04-15T15:36:13.555Z,1014.84
2023-04-15T15:37:13.438Z,1014.90
2023-04-15T15:38:13.305Z,1014.91
2023-04-15T15:39:13.232Z,1014.93
2023-04-15T15:40:46.175Z,1014.88
2023-04-15T15:41:13.372Z,1014.94
2023-04-15T15:42:13.946Z,1014.94
2023-04-15T15:43:12.913Z,1014.96
2023-04-15T15:44:13.000Z,1014.96
2023-04-15T15:45:13.346Z,1015.00
2023-04-15T15:46:13.478Z,1015.03
2023-04-15T15:47:13.455Z,1015.07
2023-04-15T15:48:23.494Z,1015.10
2023-04-15T15:49:13.895Z,1015.09
2023-04-15T15:50:13.021Z,1015.10
2023-04-15T15:51:12.908Z,1015.14
2023-04-15T15:52:13.147Z,1015.11
2023-04-15T15:53:13.271Z,1015.21
2023-04-15T15:54:13.305Z,1015.19
2023-04-15T15:55:13.239Z,1015.18
2023-04-15T15:56:13.378Z,1015.22
2023-04-15T15:57:13.315Z,1015.21
2023-04-15T15:58:13.478Z,1015.27
2023-04-15T15:59:13.358Z,1015.26
2023-04-15T16:00:13.346Z,1015.31
2023-04-15T16:01:13.441Z,1015.31
2023-04-15T16:02:13.635Z,1015.37
2023-04-15T16:03:13.982Z,1015.36
2023-04-15T16:04:13.176Z,1015.35
2023-04-15T16:05:13.464Z,1015.36
2023-04-15T16:06:13.348Z,1015.32
2023-04-15T16:07:13.268Z,1015.37
2023-04-15T16:08:13.198Z,1015.42
2023-04-15T16:09:13.087Z,1015.40
2023-04-15T16:10:13.050Z,1015.39
2023-04-15T16:11:12.934Z,1015.46
2023-04-15T16:12:12.783Z,1015.49
2023-04-15T16:13:13.605Z,1015.44
2023-04-15T16:14:13.871Z,1015.45
2023-04-15T16:15:13.846Z,1015.44
2023-04-15T16:16:13.919Z,1015.43
2023-04-15T16:17:12.991Z,1015.48
2023-04-15T16:18:12.979Z,1015.50
2023-04-15T16:19:12.826Z,1015.50
2023-04-15T16:20:13.864Z,1015.52
2023-04-15T16:21:13.819Z,1015.48
2023-04-15T16:22:13.930Z,1015.53
2023-04-15T16:23:12.817Z,1015.51
2023-04-15T16:24:13.828Z,1015.54
2023-04-15T16:25:13.799Z,1015.53
2023-04-15T16:26:13.704Z,1015.57
2023-04-15T16:27:13.764Z,1015.53
2023-04-15T16:28:25.570Z,1015.56
2023-04-15T16:29:13.349Z,1015.55
2023-04-15T16:30:13.539Z,1015.60
2023-04-15T16:31:13.645Z,1015.59
2023-04-15T16:32:13.749Z,1015.61
2023-04-15T16:33:13.888Z,1015.60
2023-04-15T16:34:13.875Z,1015.67
2023-04-15T16:35:13.870Z,1015.65
2023-04-15T16:36:13.773Z,1015.62
2023-04-15T16:37:13.828Z,1015.67
2023-04-15T16:38:13.890Z,1015.67
2023-04-15T16:39:12.886Z,1015.67
2023-04-15T16:40:12.904Z,1015.67
2023-04-15T16:41:14.211Z,1015.71
2023-04-15T16:42:13.157Z,1015.71
2023-04-15T16:43:13.122Z,1015.71
2023-04-15T16:44:13.153Z,1015.73
2023-04-15T16:45:13.184Z,1015.74
2023-04-15T16:46:13.228Z,1015.77
2023-04-15T16:47:13.915Z,1015.73
2023-04-15T16:48:12.794Z,1015.76
2023-04-15T16:49:13.756Z,1015.77
2023-04-15T16:50:13.710Z,1015.77
2023-04-15T16:51:13.576Z,1015.74
2023-04-15T16:52:13.499Z,1015.82
2023-04-15T16:53:13.433Z,1015.86
2023-04-15T16:54:13.406Z,1015.76
2023-04-15T16:55:13.526Z,1015.85
2023-04-15T16:56:13.531Z,1015.80
2023-04-15T16:57:13.545Z,1015.82
2023-04-15T16:58:13.479Z,1015.88
2023-04-15T16:59:13.368Z,1015.87
2023-04-15T17:00:15.470Z,1015.87
2023-04-15T17:01:13.723Z,1015.94
2023-04-15T17:02:13.787Z,1015.94
2023-04-15T17:03:13.539Z,1015.91
2023-04-15T17:04:13.850Z,1015.94
2023-04-15T17:05:12.813Z,1015.97
2023-04-15T17:06:13.914Z,1016.02
2023-04-15T17:07:13.021Z,1016.02
2023-04-15T17:08:12.996Z,1016.02
2023-04-15T17:09:13.268Z,1016.05
2023-04-15T17:10:13.043Z,1016.03
2023-04-15T17:11:13.052Z,1016.04
2023-04-15T17:12:13.014Z,1016.09
2023-04-15T17:13:13.117Z,1016.12
2023-04-15T17:14:13.156Z,1016.14
2023-04-15T17:15:13.132Z,1016.12
2023-04-15T17:16:13.102Z,1016.11
2023-04-15T17:17:13.173Z,1016.20
2023-04-15T17:18:18.063Z,1016.20
2023-04-15T17:19:13.198Z,1016.20
2023-04-15T17:20:13.287Z,1016.18
2023-04-15T17:21:13.207Z,1016.20
2023-04-15T17:22:13.116Z,1016.23
2023-04-15T17:23:13.208Z,1016.23
2023-04-15T17:24:13.343Z,1016.20
2023-04-15T17:25:13.504Z,1016.21
2023-04-15T17:26:13.652Z,1016.21
2023-04-15T17:27:13.689Z,1016.20
2023-04-15T17:28:13.893Z,1016.25
2023-04-15T17:29:12.953Z,1016.27
2023-04-15T17:30:13.236Z,1016.23
2023-04-15T17:31:13.409Z,1016.21
2023-04-15T17:32:13.698Z,1016.30
2023-04-15T17:33:53.463Z,1016.29
2023-04-15T17:34:15.767Z,1016.26
2023-04-15T17:36:13.635Z,1016.29
2023-04-15T17:37:13.556Z,1016.32
2023-04-15T17:38:13.350Z,1016.30
2023-04-15T17:39:13.251Z,1016.29
2023-04-15T17:40:13.279Z,1016.31
2023-04-15T17:41:13.200Z,1016.30
2023-04-15T17:42:27.730Z,1016.35
2023-04-15T17:43:13.753Z,1016.40
2023-04-15T17:44:13.740Z,1016.41
2023-04-15T17:45:13.754Z,1016.40
2023-04-15T17:46:13.831Z,1016.42
2023-04-15T17:47:12.781Z,1016.44
2023-04-15T17:48:13.764Z,1016.41
2023-04-15T17:49:13.674Z,1016.47
2023-04-15T17:50:13.636Z,1016.48
2023-04-15T17:51:13.578Z,1016.48
2023-04-15T17:52:13.522Z,1016.49
2023-04-15T17:53:13.445Z,1016.50
2023-04-15T17:54:13.769Z,1016.55
2023-04-15T17:55:13.908Z,1016.49
2023-04-15T17:56:12.699Z,1016.56
2023-04-15T17:57:13.678Z,1016.58
2023-04-15T17:58:13.895Z,1016.54
2023-04-15T17:59:12.870Z,1016.57
2023-04-15T18:00:13.771Z,1016.58
2023-04-15T18:01:13.757Z,1016.59
2023-04-15T18:02:13.717Z,1016.62
2023-04-15T18:03:13.779Z,1016.57
2023-04-15T18:04:14.040Z,1016.62
2023-04-15T18:05:13.498Z,1016.63
2023-04-15T18:06:13.548Z,1016.64
2023-04-15T18:07:13.566Z,1016.67
2023-04-15T18:08:13.678Z,1016.65
2023-04-15T18:09:19.012Z,1016.71
2023-04-15T18:10:13.452Z,1016.70
2023-04-15T18:11:13.603Z,1016.68
2023-04-15T18:12:13.984Z,1016.73
2023-04-15T18:13:13.284Z,1016.70
2023-04-15T18:14:17.727Z,1016.69
2023-04-15T18:15:13.156Z,1016.71
2023-04-15T18:17:14.350Z,1016.72
2023-04-15T18:18:26.294Z,1016.74
2023-04-15T18:19:13.189Z,1016.71
2023-04-15T18:20:13.334Z,1016.74
2023-04-15T18:21:13.836Z,1016.80
2023-04-15T18:22:14.023Z,1016.76
2023-04-15T18:23:13.062Z,1016.76
2023-04-15T18:25:13.546Z,1016.79
2023-04-15T18:26:13.431Z,1016.80
2023-04-15T18:27:13.890Z,1016.83
2023-04-15T18:28:12.774Z,1016.85
2023-04-15T18:30:12.784Z,1016.89
2023-04-15T18:31:13.776Z,1016.84
2023-04-15T18:32:13.793Z,1016.90
2023-04-15T18:33:13.725Z,1016.90
2023-04-15T18:34:13.829Z,1016.90
2023-04-15T18:35:13.902Z,1017.00
2023-04-15T18:36:13.065Z,1016.96
2023-04-15T18:37:13.101Z,1017.05
2023-04-15T18:38:13.106Z,1017.03
2023-04-15T18:39:13.113Z,1017.04
2023-04-15T18:40:18.070Z,1017.04
2023-04-15T18:41:13.213Z,1017.08
2023-04-15T18:42:13.521Z,1017.11
2023-04-15T18:43:13.362Z,1017.11
2023-04-15T18:44:13.193Z,1017.11
2023-04-15T18:45:13.256Z,1017.11
2023-04-15T18:46:13.148Z,1017.12
2023-04-15T18:47:13.143Z,1017.12
2023-04-15T18:48:13.077Z,1017.15
2023-04-15T18:49:13.085Z,1017.13
2023-04-15T18:50:12.983Z,1017.19
2023-04-15T18:51:13.321Z,1017.21
2023-04-15T18:52:13.502Z,1017.24
2023-04-15T18:53:13.372Z,1017.24
2023-04-15T18:54:13.249Z,1017.21
2023-04-15T18:55:19.271Z,1017.19
2023-04-15T18:56:13.260Z,1017.24
2023-04-15T18:57:13.525Z,1017.25
2023-04-15T18:58:13.791Z,1017.27
2023-04-15T18:59:29.801Z,1017.26
2023-04-15T19:00:13.593Z,1017.28
2023-04-15T19:01:13.550Z,1017.27
2023-04-15T19:02:13.895Z,1017.29
2023-04-15T19:03:12.855Z,1017.30
2023-04-15T19:04:13.058Z,1017.27
2023-04-15T19:05:13.078Z,1017.33
2023-04-15T19:06:12.978Z,1017.31
2023-04-15T19:07:12.912Z,1017.34
2023-04-15T19:08:12.807Z,1017.37
2023-04-15T19:09:14.162Z,1017.38
2023-04-15T19:10:13.101Z,1017.40
2023-04-15T19:11:13.178Z,1017.38
2023-04-15T19:12:12.995Z,1017.42
2023-04-15T19:13:13.239Z,1017.40
2023-04-15T19:14:13.113Z,1017.44
2023-04-15T19:15:13.458Z,1017.46
2023-04-15T19:16:13.478Z,1017.47
2023-04-15T19:17:13.544Z,1017.51
2023-04-15T19:18:13.444Z,1017.56
2023-04-15T19:19:13.391Z,1017.54
2023-04-15T19:20:13.740Z,1017.51
2023-04-15T19:21:13.800Z,1017.50
2023-04-15T19:22:13.948Z,1017.55
2023-04-15T19:23:12.848Z,1017.53
2023-04-15T19:24:13.857Z,1017.57